Terminal Aerodrome Forecast
Issued by NWS

Home | Current Version | Previous Version | Text Only | Print | Product List | Glossary On
Versions: 1 2 3 4 5 6 7 8 9 10 11 12 13 14 15 16
000
FTUS44 KMAF 030500
TAFPEQ
TAF
KPEQ 030523Z 0306/0406 11012KT P6SM SKC
     FM030800 10009KT P6SM SKC
     FM031900 11014G22KT P6SM FEW100 SCT250=

USA.gov is the U.S. government's official web portal to all federal, state and local government web resources and services.